createdAt,value
2018-05-11T00:02:17.580Z,6.30
2018-05-11T00:04:49.774Z,6.10
2018-05-11T00:07:17.284Z,5.95
2018-05-11T00:09:45.687Z,5.93
2018-05-11T00:12:13.199Z,5.70
2018-05-11T00:14:40.726Z,5.57
2018-05-11T00:17:09.859Z,5.60
2018-05-11T00:19:37.381Z,5.68
2018-05-11T00:22:05.668Z,6.15
2018-05-11T00:24:37.127Z,6.37
2018-05-11T00:27:04.642Z,5.85
2018-05-11T00:29:32.169Z,5.50
2018-05-11T00:32:00.266Z,6.07
2018-05-11T00:34:28.293Z,6.20
2018-05-11T00:36:55.796Z,5.85
2018-05-11T00:39:23.382Z,6.03
2018-05-11T00:41:51.652Z,5.95
2018-05-11T00:44:19.934Z,5.95
2018-05-11T00:46:48.208Z,5.75
2018-05-11T00:49:16.624Z,6.60
2018-05-11T00:51:44.279Z,6.18
2018-05-11T00:54:11.858Z,6.03
2018-05-11T00:56:39.473Z,6.68
2018-05-11T00:59:07.745Z,6.55
2018-05-11T01:01:35.270Z,5.57
2018-05-11T01:04:02.823Z,5.82
2018-05-11T01:06:31.079Z,5.95
2018-05-11T01:08:58.600Z,6.62
2018-05-11T01:11:26.956Z,6.05
2018-05-11T01:13:54.456Z,5.87
2018-05-11T01:16:22.754Z,6.18
2018-05-11T01:18:50.303Z,6.18
2018-05-11T01:21:17.805Z,5.75
2018-05-11T01:23:45.321Z,6.00
2018-05-11T01:26:12.818Z,6.10
2018-05-11T01:28:40.351Z,6.05
2018-05-11T01:31:08.322Z,6.50
2018-05-11T01:33:37.702Z,6.53
2018-05-11T01:36:05.999Z,6.45
2018-05-11T01:38:33.521Z,6.28
2018-05-11T01:41:01.062Z,6.28
2018-05-11T01:43:28.592Z,6.32
2018-05-11T01:45:56.179Z,6.25
2018-05-11T01:48:23.825Z,6.40
2018-05-11T01:50:51.417Z,6.10
2018-05-11T01:53:18.973Z,6.47
2018-05-11T01:55:50.754Z,7.12
2018-05-11T01:58:19.019Z,6.65
2018-05-11T02:00:47.301Z,6.40
2018-05-11T02:03:15.569Z,6.53
2018-05-11T02:05:43.077Z,6.62
2018-05-11T02:08:10.574Z,6.85
2018-05-11T02:10:38.082Z,6.25
2018-05-11T02:13:05.589Z,6.72
2018-05-11T02:15:33.114Z,6.18
2018-05-11T02:18:00.624Z,7.05
2018-05-11T02:20:28.432Z,6.85
2018-05-11T02:22:55.955Z,6.40
2018-05-11T02:25:24.232Z,7.37
2018-05-11T02:27:52.788Z,8.48
2018-05-11T02:30:20.326Z,9.02
2018-05-11T02:32:47.850Z,9.18
2018-05-11T02:35:15.857Z,9.32
2018-05-11T02:37:43.382Z,8.77
2018-05-11T02:40:10.958Z,9.07
2018-05-11T02:42:38.466Z,8.57
2018-05-11T02:45:05.984Z,8.82
2018-05-11T02:47:33.490Z,9.07
2018-05-11T02:50:01.016Z,9.38
2018-05-11T02:52:28.527Z,9.57
2018-05-11T02:54:56.807Z,9.25
2018-05-11T02:57:25.159Z,9.65
2018-05-11T02:59:52.935Z,9.45
2018-05-11T03:02:20.427Z,8.73
2018-05-11T03:04:48.003Z,8.32
2018-05-11T03:07:15.544Z,8.80
2018-05-11T03:09:43.038Z,8.75
2018-05-11T03:12:10.602Z,9.13
2018-05-11T03:14:38.881Z,9.60
2018-05-11T03:17:07.158Z,9.65
2018-05-11T03:19:34.658Z,9.30
2018-05-11T03:22:02.989Z,10.88
2018-05-11T03:24:30.623Z,9.13
2018-05-11T03:26:58.221Z,9.32
2018-05-11T03:29:25.830Z,9.23
2018-05-11T03:31:53.421Z,8.75
2018-05-11T03:47:25.968Z,9.93
2018-05-11T03:49:53.493Z,10.13
2018-05-11T03:52:21.029Z,9.27
2018-05-11T03:54:48.574Z,10.00
2018-05-11T03:57:16.191Z,10.50
2018-05-11T03:59:44.467Z,9.07
2018-05-11T04:02:24.677Z,8.90
2018-05-11T04:05:04.236Z,9.93
2018-05-11T04:07:43.444Z,9.10
2018-05-11T04:10:10.985Z,9.25
2018-05-11T04:12:38.505Z,9.70
2018-05-11T04:15:06.813Z,10.05
2018-05-11T04:17:35.050Z,11.25
2018-05-11T04:20:02.561Z,10.77
2018-05-11T04:22:30.240Z,12.75
2018-05-11T04:24:57.740Z,12.27
2018-05-11T04:27:26.074Z,12.77
2018-05-11T04:29:54.862Z,13.57
2018-05-11T04:32:22.402Z,12.90
2018-05-11T04:34:51.035Z,13.50
2018-05-11T04:37:19.208Z,13.45
2018-05-11T04:39:46.662Z,13.52
2018-05-11T04:42:14.172Z,12.93
2018-05-11T04:44:41.726Z,12.85
2018-05-11T04:47:10.229Z,12.35
2018-05-11T04:49:37.806Z,11.80
2018-05-11T04:52:09.291Z,12.32
2018-05-11T04:54:41.749Z,12.27
2018-05-11T04:57:09.254Z,12.75
2018-05-11T04:59:36.770Z,12.15
2018-05-11T05:02:04.289Z,11.50
2018-05-11T05:04:31.953Z,11.38
2018-05-11T05:06:59.486Z,11.00
2018-05-11T05:09:27.149Z,9.07
2018-05-11T05:11:54.976Z,9.02
2018-05-11T05:24:13.317Z,9.60
2018-05-11T05:26:41.588Z,8.88
2018-05-11T05:29:09.865Z,8.85
2018-05-11T05:31:42.360Z,7.87
2018-05-11T05:34:09.894Z,7.68
2018-05-11T05:36:37.408Z,7.90
2018-05-11T05:39:05.011Z,6.90
2018-05-11T05:41:32.470Z,6.72
2018-05-11T05:43:59.984Z,6.87
2018-05-11T05:46:27.486Z,7.20
2018-05-11T05:48:55.026Z,6.87
2018-05-11T05:51:22.525Z,7.50
2018-05-11T05:53:50.815Z,7.37
2018-05-11T05:56:18.317Z,6.95
2018-05-11T05:58:45.849Z,6.87
2018-05-11T06:01:13.340Z,7.07
2018-05-11T06:03:40.938Z,6.65
2018-05-11T06:06:09.210Z,6.60
2018-05-11T06:08:37.487Z,6.70
2018-05-11T06:11:05.773Z,6.70
2018-05-11T06:13:33.333Z,6.43
2018-05-11T06:16:01.606Z,6.65
2018-05-11T06:18:29.865Z,6.45
2018-05-11T06:20:57.373Z,6.53
2018-05-11T06:23:24.861Z,6.90
2018-05-11T06:25:52.383Z,6.62
2018-05-11T06:28:19.882Z,6.78
2018-05-11T06:30:47.442Z,6.45
2018-05-11T06:33:15.044Z,6.62
2018-05-11T06:35:42.673Z,6.68
2018-05-11T06:38:10.885Z,7.15
2018-05-11T06:40:38.456Z,7.05
2018-05-11T06:43:06.705Z,6.93
2018-05-11T06:45:34.968Z,7.07
2018-05-11T06:48:02.482Z,6.43
2018-05-11T06:50:29.978Z,7.20
2018-05-11T06:52:57.465Z,6.75
2018-05-11T06:55:26.325Z,6.18
2018-05-11T06:57:53.837Z,6.93
2018-05-11T07:00:21.422Z,6.95
2018-05-11T07:02:49.026Z,6.43
2018-05-11T07:05:17.312Z,6.28
2018-05-11T07:07:45.660Z,6.55
2018-05-11T07:10:13.898Z,6.65
2018-05-11T07:12:41.451Z,6.53
2018-05-11T07:15:09.376Z,6.53
2018-05-11T07:17:36.897Z,6.60
2018-05-11T07:20:04.397Z,6.65
2018-05-11T07:22:31.906Z,7.10
2018-05-11T07:24:59.401Z,6.78
2018-05-11T07:27:27.271Z,6.78
2018-05-11T07:29:54.885Z,6.35
2018-05-11T07:32:22.426Z,6.80
2018-05-11T07:34:49.972Z,7.25
2018-05-11T07:37:17.450Z,7.03
2018-05-11T07:39:44.985Z,7.28
2018-05-11T07:42:13.322Z,7.35
2018-05-11T07:44:41.064Z,7.20
2018-05-11T07:47:08.592Z,7.00
2018-05-11T07:49:36.874Z,7.35
2018-05-11T07:52:05.141Z,7.25
2018-05-11T07:54:33.448Z,7.00
2018-05-11T07:57:00.999Z,7.90
2018-05-11T07:59:28.577Z,6.75
2018-05-11T08:01:56.141Z,6.82
2018-05-11T08:04:23.644Z,6.30
2018-05-11T08:06:51.158Z,6.45
2018-05-11T08:09:18.655Z,6.37
2018-05-11T08:11:46.170Z,6.70
2018-05-11T08:14:13.725Z,6.00
2018-05-11T08:16:41.220Z,6.35
2018-05-11T08:19:08.749Z,6.32
2018-05-11T08:21:36.254Z,6.18
2018-05-11T08:24:03.795Z,6.90
2018-05-11T08:26:31.389Z,6.65
2018-05-11T08:28:58.828Z,6.75
2018-05-11T08:31:26.351Z,6.55
2018-05-11T08:33:54.489Z,6.45
2018-05-11T08:36:22.750Z,6.53
2018-05-11T08:38:50.262Z,6.18
2018-05-11T08:41:18.097Z,6.00
2018-05-11T08:43:46.379Z,6.40
2018-05-11T08:46:14.222Z,6.37
2018-05-11T08:48:41.769Z,5.85
2018-05-11T08:51:09.278Z,6.65
2018-05-11T08:53:36.773Z,6.22
2018-05-11T08:56:04.290Z,5.55
2018-05-11T08:58:31.797Z,5.97
2018-05-11T09:00:59.314Z,6.70
2018-05-11T09:03:26.829Z,7.22
2018-05-11T09:05:54.361Z,6.70
2018-05-11T09:08:21.907Z,6.72
2018-05-11T09:10:49.800Z,6.90
2018-05-11T09:13:17.322Z,6.40
2018-05-11T09:15:44.816Z,6.60
2018-05-11T09:18:12.371Z,6.37
2018-05-11T09:20:39.909Z,6.62
2018-05-11T09:23:07.862Z,5.68
2018-05-11T09:25:35.377Z,6.53
2018-05-11T09:28:02.899Z,6.15
2018-05-11T09:30:30.400Z,6.22
2018-05-11T09:32:57.930Z,6.55
2018-05-11T09:35:25.569Z,6.00
2018-05-11T09:37:53.078Z,6.60
2018-05-11T09:40:20.611Z,6.60
2018-05-11T09:42:48.245Z,7.37
2018-05-11T09:45:15.749Z,6.68
2018-05-11T09:47:43.270Z,6.60
2018-05-11T09:50:10.832Z,6.53
2018-05-11T09:52:38.323Z,6.03
2018-05-11T09:55:05.868Z,6.40
2018-05-11T09:57:33.349Z,6.32
2018-05-11T10:00:00.868Z,6.57
2018-05-11T10:02:28.388Z,6.28
2018-05-11T10:04:56.754Z,5.90
2018-05-11T10:07:24.725Z,5.55
2018-05-11T10:09:52.261Z,5.68
2018-05-11T10:12:20.525Z,5.45
2018-05-11T10:14:48.032Z,5.53
2018-05-11T10:17:16.307Z,5.93
2018-05-11T10:19:44.586Z,5.90
2018-05-11T10:22:12.877Z,5.50
2018-05-11T10:24:41.142Z,5.93
2018-05-11T10:27:09.441Z,6.20
2018-05-11T10:29:36.933Z,6.03
2018-05-11T10:32:04.464Z,6.03
2018-05-11T10:34:32.076Z,6.10
2018-05-11T10:37:00.288Z,5.90
2018-05-11T10:39:27.785Z,5.70
2018-05-11T10:41:55.329Z,6.72
2018-05-11T10:44:22.858Z,6.15
2018-05-11T10:46:51.165Z,5.60
2018-05-11T10:49:18.704Z,5.25
2018-05-11T10:51:46.223Z,5.60
2018-05-11T10:54:13.745Z,6.12
2018-05-11T10:56:41.277Z,5.87
2018-05-11T10:59:08.862Z,5.62
2018-05-11T11:01:36.364Z,6.30
2018-05-11T11:04:03.875Z,5.85
2018-05-11T11:06:31.380Z,6.00
2018-05-11T11:08:59.053Z,4.90
2018-05-11T11:11:26.578Z,5.50
2018-05-11T11:13:54.158Z,5.53
2018-05-11T11:16:21.786Z,5.47
2018-05-11T11:18:49.303Z,5.10
2018-05-11T11:21:17.582Z,4.85
2018-05-11T11:23:45.911Z,5.18
2018-05-11T11:26:13.419Z,5.37
2018-05-11T11:28:41.718Z,5.15
2018-05-11T11:31:09.880Z,5.62
2018-05-11T11:33:38.227Z,5.28
2018-05-11T11:36:06.618Z,5.32
2018-05-11T11:38:34.152Z,5.90
2018-05-11T11:41:02.022Z,5.40
2018-05-11T11:43:29.553Z,5.72
2018-05-11T11:45:57.125Z,5.70
2018-05-11T11:48:24.630Z,5.87
2018-05-11T11:50:52.893Z,6.10
2018-05-11T11:53:20.429Z,5.50
2018-05-11T11:55:48.712Z,5.47
2018-05-11T11:58:16.225Z,6.20
2018-05-11T12:00:44.447Z,5.80
2018-05-11T12:03:11.978Z,5.07
2018-05-11T12:05:39.485Z,5.10
2018-05-11T12:08:11.126Z,5.55
2018-05-11T12:13:13.069Z,4.85
2018-05-11T12:15:40.603Z,5.10
2018-05-11T12:18:09.742Z,4.93
2018-05-11T12:20:37.769Z,4.80
2018-05-11T12:23:06.161Z,4.70
2018-05-11T12:25:33.597Z,4.80
2018-05-11T12:28:01.879Z,4.55
2018-05-11T12:30:30.165Z,4.70
2018-05-11T12:32:58.429Z,4.72
2018-05-11T12:35:26.708Z,4.95
2018-05-11T12:37:54.970Z,5.30
2018-05-11T12:40:22.485Z,4.97
2018-05-11T12:42:50.031Z,5.20
2018-05-11T12:45:17.541Z,4.72
2018-05-11T12:47:45.071Z,4.07
2018-05-11T12:50:12.574Z,4.60
2018-05-11T12:52:40.858Z,4.35
2018-05-11T12:55:09.750Z,4.47
2018-05-11T12:57:38.055Z,4.60
2018-05-11T13:00:05.554Z,4.62
2018-05-11T13:02:33.081Z,4.70
2018-05-11T13:05:00.598Z,4.57
2018-05-11T13:07:28.923Z,4.53
2018-05-11T13:09:56.441Z,4.50
2018-05-11T13:12:24.713Z,4.37
2018-05-11T13:14:53.034Z,3.95
2018-05-11T13:17:20.556Z,4.43
2018-05-11T13:19:48.846Z,5.00
2018-05-11T13:22:17.114Z,4.18
2018-05-11T13:24:48.727Z,4.50
2018-05-11T13:27:16.400Z,4.30
2018-05-11T13:29:43.935Z,3.85
2018-05-11T13:32:11.439Z,4.15
2018-05-11T13:34:39.737Z,3.70
2018-05-11T13:37:07.285Z,3.37
2018-05-11T13:39:35.633Z,4.03
2018-05-11T13:42:03.219Z,4.43
2018-05-11T13:44:31.483Z,4.20
2018-05-11T13:46:58.994Z,4.40
2018-05-11T13:49:26.523Z,4.57
2018-05-11T13:51:54.850Z,4.10
2018-05-11T13:54:22.469Z,3.72
2018-05-11T13:56:50.144Z,4.30
2018-05-11T13:59:17.706Z,4.10
2018-05-11T14:01:45.344Z,4.05
2018-05-11T14:04:12.975Z,4.15
2018-05-11T14:06:40.744Z,4.18
2018-05-11T14:09:08.270Z,3.90
2018-05-11T14:11:35.778Z,4.45
2018-05-11T14:14:04.195Z,3.33
2018-05-11T14:16:31.702Z,3.40
2018-05-11T14:18:59.425Z,4.07
2018-05-11T14:21:27.006Z,3.90
2018-05-11T14:23:54.650Z,3.50
2018-05-11T14:26:22.994Z,2.80
2018-05-11T14:28:51.268Z,3.40
2018-05-11T14:31:19.553Z,3.30
2018-05-11T14:33:47.105Z,3.08
2018-05-11T14:36:15.494Z,3.10
2018-05-11T14:38:43.064Z,4.12
2018-05-11T14:41:10.603Z,4.30
2018-05-11T14:43:38.917Z,4.62
2018-05-11T14:46:06.427Z,3.87
2018-05-11T14:48:33.927Z,3.87
2018-05-11T14:51:01.433Z,3.50
2018-05-11T14:53:28.925Z,3.47
2018-05-11T14:55:57.248Z,3.28
2018-05-11T14:58:24.790Z,3.75
2018-05-11T15:00:52.385Z,4.45
2018-05-11T15:14:19.656Z,4.00
2018-05-11T15:16:47.175Z,3.80
2018-05-11T15:19:14.829Z,4.35
2018-05-11T15:21:42.418Z,3.28
2018-05-11T15:24:10.695Z,4.60
2018-05-11T15:26:38.966Z,4.10
2018-05-11T15:29:06.470Z,3.67
2018-05-11T15:31:35.059Z,4.75
2018-05-11T15:47:07.620Z,3.80
2018-05-11T15:49:35.143Z,4.15
2018-05-11T15:52:03.479Z,4.35
2018-05-11T15:54:31.055Z,5.57
2018-05-11T15:56:58.591Z,5.50
2018-05-11T15:59:26.102Z,5.10
2018-05-11T16:01:54.428Z,5.12
2018-05-11T16:04:22.425Z,5.80
2018-05-11T16:06:49.963Z,5.20
2018-05-11T16:09:17.505Z,4.60
2018-05-11T16:11:45.082Z,4.37
2018-05-11T16:14:13.614Z,5.07
2018-05-11T16:16:41.897Z,4.68
2018-05-11T16:19:10.172Z,5.87
2018-05-11T16:21:38.471Z,4.95
2018-05-11T16:24:06.039Z,4.60
2018-05-11T16:26:33.645Z,4.62
2018-05-11T16:29:01.230Z,5.40
2018-05-11T16:31:29.513Z,4.90
2018-05-11T16:33:58.222Z,4.40
2018-05-11T16:36:25.753Z,5.05
2018-05-11T16:38:54.771Z,5.25
2018-05-11T16:41:26.371Z,5.85
2018-05-11T16:43:53.871Z,5.65
2018-05-11T16:46:21.381Z,5.95
2018-05-11T16:48:48.918Z,5.32
2018-05-11T16:51:16.657Z,6.05
2018-05-11T16:53:44.952Z,5.60
2018-05-11T16:56:13.033Z,5.97
2018-05-11T16:58:40.589Z,6.20
2018-05-11T17:01:08.142Z,5.85
2018-05-11T17:03:35.637Z,5.97
2018-05-11T17:06:03.138Z,5.18
2018-05-11T17:08:31.479Z,5.97
2018-05-11T17:10:59.018Z,6.80
2018-05-11T17:13:26.532Z,6.50
2018-05-11T17:15:54.831Z,7.12
2018-05-11T17:18:22.398Z,7.93
2018-05-11T17:20:49.909Z,8.05
2018-05-11T17:23:18.166Z,7.40
2018-05-11T17:25:45.965Z,8.45
2018-05-11T17:28:14.094Z,8.52
2018-05-11T17:30:45.629Z,8.98
2018-05-11T17:33:21.052Z,8.02
2018-05-11T17:35:48.597Z,8.43
2018-05-11T17:38:16.889Z,8.20
2018-05-11T17:40:44.394Z,9.30
2018-05-11T17:43:11.910Z,8.35
2018-05-11T17:45:39.441Z,8.43
2018-05-11T17:48:07.705Z,9.18
2018-05-11T17:50:35.235Z,8.95
2018-05-11T17:53:02.749Z,8.38
2018-05-11T17:55:31.101Z,8.10
2018-05-11T17:58:00.010Z,7.68
2018-05-11T18:00:28.315Z,12.15
2018-05-11T18:02:55.817Z,8.43
2018-05-11T18:05:23.661Z,7.60
2018-05-11T18:07:51.179Z,8.95
2018-05-11T18:10:20.289Z,8.05
2018-05-11T18:15:21.707Z,7.05
2018-05-11T18:17:49.347Z,7.55
2018-05-11T18:20:16.965Z,7.45
2018-05-11T18:22:45.253Z,7.93
2018-05-11T18:25:12.813Z,7.28
2018-05-11T18:27:40.321Z,6.82
2018-05-11T18:30:08.656Z,7.18
2018-05-11T18:32:36.191Z,9.60
2018-05-11T18:35:05.433Z,6.50
2018-05-11T18:37:33.031Z,7.60
2018-05-11T18:40:00.621Z,6.68
2018-05-11T18:42:28.922Z,7.25
2018-05-11T18:44:57.978Z,6.85
2018-05-11T18:47:25.506Z,6.95
2018-05-11T18:49:53.001Z,6.80
2018-05-11T18:52:21.394Z,6.28
2018-05-11T18:54:49.700Z,6.50
2018-05-11T18:57:17.223Z,6.30
2018-05-11T18:59:45.506Z,6.55
2018-05-11T19:02:13.799Z,6.43
2018-05-11T19:04:41.417Z,6.75
2018-05-11T19:07:09.943Z,6.45
2018-05-11T19:09:41.140Z,6.50
2018-05-11T19:12:08.635Z,6.55
2018-05-11T19:14:40.192Z,6.85
2018-05-11T19:17:08.195Z,7.30
2018-05-11T19:19:39.701Z,6.87
2018-05-11T19:22:08.002Z,6.32
2018-05-11T19:24:36.279Z,6.57
2018-05-11T19:27:03.777Z,6.12
2018-05-11T19:29:32.049Z,6.00
2018-05-11T19:31:59.637Z,6.57
2018-05-11T19:34:27.308Z,6.87
2018-05-11T19:36:55.590Z,6.47
2018-05-11T19:39:23.854Z,6.78
2018-05-11T19:41:51.383Z,6.87
2018-05-11T19:44:18.919Z,6.30
2018-05-11T19:46:46.478Z,6.40
2018-05-11T19:49:14.744Z,7.10
2018-05-11T19:51:42.291Z,6.95
2018-05-11T19:54:10.595Z,7.22
2018-05-11T19:56:38.133Z,7.32
2018-05-11T19:59:05.674Z,7.97
2018-05-11T20:01:33.981Z,7.07
2018-05-11T20:04:01.489Z,7.18
2018-05-11T20:06:29.007Z,6.97
2018-05-11T20:08:56.539Z,7.35
2018-05-11T20:11:24.951Z,7.25
2018-05-11T20:13:52.567Z,7.30
2018-05-11T20:16:21.537Z,7.05
2018-05-11T20:18:49.102Z,7.35
2018-05-11T20:21:16.610Z,7.87
2018-05-11T20:23:44.164Z,8.27
2018-05-11T20:26:11.704Z,7.53
2018-05-11T20:28:40.019Z,7.37
2018-05-11T20:31:07.545Z,7.97
2018-05-11T20:33:35.858Z,7.93
2018-05-11T20:36:03.377Z,8.00
2018-05-11T20:38:31.669Z,7.95
2018-05-11T20:40:59.976Z,8.13
2018-05-11T20:43:27.547Z,8.60
2018-05-11T20:45:55.165Z,8.38
2018-05-11T20:48:23.450Z,8.30
2018-05-11T20:50:51.073Z,8.65
2018-05-11T20:53:19.272Z,8.48
2018-05-11T20:55:48.145Z,8.32
2018-05-11T20:58:15.686Z,8.90
2018-05-11T21:00:43.215Z,8.70
2018-05-11T21:03:11.374Z,9.05
2018-05-11T21:05:38.887Z,9.00
2018-05-11T21:08:06.857Z,9.93
2018-05-11T21:10:34.362Z,8.82
2018-05-11T21:13:01.881Z,8.25
2018-05-11T21:15:29.405Z,8.43
2018-05-11T21:17:56.934Z,8.75
2018-05-11T21:20:24.445Z,8.85
2018-05-11T21:22:51.985Z,8.55
2018-05-11T21:25:19.626Z,8.85
2018-05-11T21:27:47.219Z,8.25
2018-05-11T21:30:15.462Z,8.88
2018-05-11T21:32:42.981Z,8.70
2018-05-11T21:35:10.507Z,8.85
2018-05-11T21:47:23.061Z,8.30
2018-05-11T21:49:50.576Z,8.68
2018-05-11T21:52:18.071Z,8.07
2018-05-11T21:54:45.595Z,8.45
2018-05-11T21:57:13.249Z,9.65
2018-05-11T21:59:40.863Z,8.73
2018-05-11T22:02:11.109Z,8.35
2018-05-11T22:17:39.425Z,8.35
2018-05-11T22:20:07.721Z,8.60
2018-05-11T22:22:36.081Z,8.48
2018-05-11T22:25:04.356Z,7.90
2018-05-11T22:27:32.631Z,8.48
2018-05-11T22:30:04.901Z,8.30
2018-05-11T22:32:33.185Z,9.18
2018-05-11T22:35:01.475Z,9.55
2018-05-11T22:37:29.261Z,9.80
2018-05-11T22:39:57.643Z,9.25
2018-05-11T22:42:25.190Z,9.10
2018-05-11T22:44:52.691Z,9.32
2018-05-11T22:47:20.220Z,9.80
2018-05-11T22:49:47.722Z,9.35
2018-05-11T22:52:15.264Z,8.75
2018-05-11T22:54:43.024Z,9.18
2018-05-11T22:57:10.524Z,10.23
2018-05-11T22:59:38.882Z,9.95
2018-05-11T23:02:06.469Z,9.50
2018-05-11T23:04:34.746Z,10.05
2018-05-11T23:07:03.012Z,10.75
2018-05-11T23:09:31.296Z,10.50
2018-05-11T23:12:03.841Z,10.25
2018-05-11T23:14:31.933Z,11.43
2018-05-11T23:16:59.451Z,10.02
2018-05-11T23:19:27.034Z,10.73
2018-05-11T23:21:54.562Z,10.68
2018-05-11T23:24:22.079Z,11.07
2018-05-11T23:26:50.358Z,10.52
2018-05-11T23:42:22.914Z,10.90
2018-05-11T23:44:50.417Z,9.93
2018-05-11T23:47:17.939Z,10.95
2018-05-11T23:49:46.329Z,10.40
2018-05-11T23:52:14.614Z,10.38
2018-05-11T23:54:42.855Z,10.55
2018-05-11T23:57:10.372Z,10.77
2018-05-11T23:59:37.874Z,9.75
